sensor_id;sensor_type;location;lat;lon;timestamp;P1;durP1;ratioP1;P2;durP2;ratioP2
75614;SDS011;64199;48.578;-4.520;2024-02-21T13:50:29;7.93;;;0.95;;
75614;SDS011;64199;48.578;-4.520;2024-02-21T13:53:07;2.63;;;1.08;;
75614;SDS011;64199;48.578;-4.520;2024-02-21T13:55:35;0.82;;;0.68;;
75614;SDS011;64199;48.578;-4.520;2024-02-21T13:58:01;3.95;;;1.02;;
75614;SDS011;64199;48.578;-4.520;2024-02-21T14:00:28;8.10;;;0.88;;
75614;SDS011;64199;48.578;-4.520;2024-02-21T14:02:54;11.10;;;1.58;;
75614;SDS011;64199;48.578;-4.520;2024-02-21T14:05:20;3.70;;;1.02;;
75614;SDS011;64199;48.578;-4.520;2024-02-21T14:07:45;9.50;;;1.23;;
75614;SDS011;64199;48.578;-4.520;2024-02-21T14:10:11;9.77;;;1.17;;
75614;SDS011;64199;48.578;-4.520;2024-02-21T14:12:37;12.65;;;2.58;;
75614;SDS011;64199;48.578;-4.520;2024-02-21T14:15:03;11.27;;;1.08;;
75614;SDS011;64199;48.578;-4.520;2024-02-21T14:17:30;14.85;;;1.60;;
75614;SDS011;64199;48.578;-4.520;2024-02-21T14:19:56;15.38;;;1.90;;
75614;SDS011;64199;48.578;-4.520;2024-02-21T14:22:22;7.07;;;1.25;;
75614;SDS011;64199;48.578;-4.520;2024-02-21T14:24:47;7.95;;;1.63;;
75614;SDS011;64199;48.578;-4.520;2024-02-21T14:27:13;8.98;;;1.48;;
75614;SDS011;64199;48.578;-4.520;2024-02-21T14:29:39;6.25;;;1.77;;
75614;SDS011;64199;48.578;-4.520;2024-02-21T14:32:05;8.13;;;1.52;;
75614;SDS011;64199;48.578;-4.520;2024-02-21T14:34:32;6.43;;;0.90;;
75614;SDS011;64199;48.578;-4.520;2024-02-21T14:36:58;6.53;;;1.13;;
75614;SDS011;64199;48.578;-4.520;2024-02-21T14:39:24;8.25;;;0.95;;
75614;SDS011;64199;48.578;-4.520;2024-02-21T14:41:50;3.75;;;1.15;;
75614;SDS011;64199;48.578;-4.520;2024-02-21T14:44:16;3.33;;;1.00;;
75614;SDS011;64199;48.578;-4.520;2024-02-21T14:46:42;8.95;;;1.30;;
75614;SDS011;64199;48.578;-4.520;2024-02-21T14:49:08;7.03;;;1.60;;
75614;SDS011;64199;48.578;-4.520;2024-02-21T14:51:33;3.20;;;1.13;;
75614;SDS011;64199;48.578;-4.520;2024-02-21T14:53:59;2.75;;;1.00;;
75614;SDS011;64199;48.578;-4.520;2024-02-21T14:56:25;4.45;;;0.68;;
75614;SDS011;64199;48.578;-4.520;2024-02-21T14:58:51;4.32;;;1.10;;
75614;SDS011;64199;48.578;-4.520;2024-02-21T15:01:17;4.93;;;1.42;;
75614;SDS011;64199;48.578;-4.520;2024-02-21T15:03:43;9.02;;;1.10;;
75614;SDS011;64199;48.578;-4.520;2024-02-21T15:06:09;5.60;;;0.93;;
75614;SDS011;64199;48.578;-4.520;2024-02-21T15:08:35;3.90;;;1.00;;
75614;SDS011;64199;48.578;-4.520;2024-02-21T15:11:01;7.47;;;1.25;;
75614;SDS011;64199;48.578;-4.520;2024-02-21T15:13:28;14.30;;;1.17;;
75614;SDS011;64199;48.578;-4.520;2024-02-21T15:15:55;5.10;;;0.90;;
75614;SDS011;64199;48.578;-4.520;2024-02-21T15:18:21;8.23;;;1.50;;
75614;SDS011;64199;48.578;-4.520;2024-02-21T15:20:47;4.65;;;1.08;;
75614;SDS011;64199;48.578;-4.520;2024-02-21T15:23:13;3.83;;;0.70;;
75614;SDS011;64199;48.578;-4.520;2024-02-21T15:25:40;3.72;;;1.05;;
75614;SDS011;64199;48.578;-4.520;2024-02-21T15:28:08;3.25;;;1.08;;
75614;SDS011;64199;48.578;-4.520;2024-02-21T15:30:34;4.25;;;1.00;;
75614;SDS011;64199;48.578;-4.520;2024-02-21T15:33:00;4.32;;;1.23;;
75614;SDS011;64199;48.578;-4.520;2024-02-21T15:35:30;3.50;;;0.95;;
75614;SDS011;64199;48.578;-4.520;2024-02-21T15:37:57;4.68;;;1.25;;
75614;SDS011;64199;48.578;-4.520;2024-02-21T15:40:23;4.55;;;1.15;;
75614;SDS011;64199;48.578;-4.520;2024-02-21T15:42:49;4.32;;;1.05;;
75614;SDS011;64199;48.578;-4.520;2024-02-21T15:45:15;4.60;;;0.98;;
75614;SDS011;64199;48.578;-4.520;2024-02-21T15:47:41;3.45;;;1.17;;
75614;SDS011;64199;48.578;-4.520;2024-02-21T15:50:07;2.70;;;0.93;;
75614;SDS011;64199;48.578;-4.520;2024-02-21T15:52:35;3.70;;;1.05;;
75614;SDS011;64199;48.578;-4.520;2024-02-21T15:55:02;6.38;;;1.20;;
75614;SDS011;64199;48.578;-4.520;2024-02-21T15:57:28;2.80;;;1.08;;
75614;SDS011;64199;48.578;-4.520;2024-02-21T15:59:56;3.80;;;1.20;;
75614;SDS011;64199;48.578;-4.520;2024-02-21T16:02:22;4.60;;;1.10;;
75614;SDS011;64199;48.578;-4.520;2024-02-21T16:04:49;2.85;;;0.98;;
75614;SDS011;64199;48.578;-4.520;2024-02-21T16:07:15;3.75;;;1.20;;
75614;SDS011;64199;48.578;-4.520;2024-02-21T16:09:43;5.88;;;1.60;;
75614;SDS011;64199;48.578;-4.520;2024-02-21T16:12:09;3.42;;;1.10;;
75614;SDS011;64199;48.578;-4.520;2024-02-21T16:14:36;10.35;;;1.88;;
75614;SDS011;64199;48.578;-4.520;2024-02-21T16:17:03;8.18;;;1.67;;
75614;SDS011;64199;48.578;-4.520;2024-02-21T16:19:32;9.27;;;1.10;;
75614;SDS011;64199;48.578;-4.520;2024-02-21T16:21:58;9.57;;;1.50;;
75614;SDS011;64199;48.578;-4.520;2024-02-21T16:24:25;8.77;;;1.63;;
75614;SDS011;64199;48.578;-4.520;2024-02-21T16:26:51;10.38;;;1.23;;
75614;SDS011;64199;48.578;-4.520;2024-02-21T16:29:18;3.70;;;1.13;;
75614;SDS011;64199;48.578;-4.520;2024-02-21T16:31:44;4.35;;;1.15;;
75614;SDS011;64199;48.578;-4.520;2024-02-21T16:34:10;4.38;;;1.50;;
75614;SDS011;64199;48.578;-4.520;2024-02-21T16:36:36;7.75;;;1.40;;
75614;SDS011;64199;48.578;-4.520;2024-02-21T16:39:03;7.68;;;1.33;;
75614;SDS011;64199;48.578;-4.520;2024-02-21T16:41:31;5.82;;;1.08;;
75614;SDS011;64199;48.578;-4.520;2024-02-21T16:43:58;9.75;;;1.42;;
75614;SDS011;64199;48.578;-4.520;2024-02-21T16:46:24;4.32;;;1.00;;
75614;SDS011;64199;48.578;-4.520;2024-02-21T16:48:51;8.13;;;1.10;;
75614;SDS011;64199;48.578;-4.520;2024-02-21T16:51:17;6.78;;;1.27;;
75614;SDS011;64199;48.578;-4.520;2024-02-21T16:53:43;3.45;;;0.98;;
75614;SDS011;64199;48.578;-4.520;2024-02-21T16:56:09;3.00;;;0.90;;
75614;SDS011;64199;48.578;-4.520;2024-02-21T16:58:35;4.75;;;0.85;;
75614;SDS011;64199;48.578;-4.520;2024-02-21T17:01:04;5.15;;;1.42;;
75614;SDS011;64199;48.578;-4.520;2024-02-21T17:03:35;1.40;;;0.90;;
75614;SDS011;64199;48.578;-4.520;2024-02-21T17:06:01;3.78;;;1.20;;
75614;SDS011;64199;48.578;-4.520;2024-02-21T17:08:30;2.95;;;1.02;;
75614;SDS011;64199;48.578;-4.520;2024-02-21T17:10:56;3.55;;;1.15;;
75614;SDS011;64199;48.578;-4.520;2024-02-21T17:13:22;3.53;;;1.10;;
75614;SDS011;64199;48.578;-4.520;2024-02-21T17:15:49;4.22;;;1.35;;
75614;SDS011;64199;48.578;-4.520;2024-02-21T17:18:16;3.03;;;1.00;;
75614;SDS011;64199;48.578;-4.520;2024-02-21T17:20:45;4.40;;;1.27;;
75614;SDS011;64199;48.578;-4.520;2024-02-21T17:23:13;3.45;;;1.23;;
75614;SDS011;64199;48.578;-4.520;2024-02-21T17:25:40;4.82;;;1.48;;
75614;SDS011;64199;48.578;-4.520;2024-02-21T17:28:06;3.20;;;1.20;;
75614;SDS011;64199;48.578;-4.520;2024-02-21T17:30:32;2.72;;;1.48;;
75614;SDS011;64199;48.578;-4.520;2024-02-21T17:33:01;5.78;;;1.27;;
75614;SDS011;64199;48.578;-4.520;2024-02-21T17:35:28;2.90;;;1.00;;
75614;SDS011;64199;48.578;-4.520;2024-02-21T17:37:54;3.25;;;0.95;;
75614;SDS011;64199;48.578;-4.520;2024-02-21T17:40:20;3.70;;;1.17;;
75614;SDS011;64199;48.578;-4.520;2024-02-21T17:42:46;3.50;;;1.25;;
75614;SDS011;64199;48.578;-4.520;2024-02-21T17:45:12;3.00;;;1.30;;
75614;SDS011;64199;48.578;-4.520;2024-02-21T17:47:38;2.15;;;0.98;;
75614;SDS011;64199;48.578;-4.520;2024-02-21T17:50:04;1.67;;;0.82;;
75614;SDS011;64199;48.578;-4.520;2024-02-21T17:52:30;2.85;;;1.17;;
75614;SDS011;64199;48.578;-4.520;2024-02-21T17:54:56;3.40;;;1.05;;
75614;SDS011;64199;48.578;-4.520;2024-02-21T17:57:22;2.42;;;1.00;;
75614;SDS011;64199;48.578;-4.520;2024-02-21T17:59:48;4.25;;;1.17;;
75614;SDS011;64199;48.578;-4.520;2024-02-21T18:02:14;5.20;;;1.00;;
75614;SDS011;64199;48.578;-4.520;2024-02-21T18:04:45;2.97;;;0.90;;
75614;SDS011;64199;48.578;-4.520;2024-02-21T18:07:12;3.70;;;1.27;;
75614;SDS011;64199;48.578;-4.520;2024-02-21T18:09:38;2.60;;;1.00;;
75614;SDS011;64199;48.578;-4.520;2024-02-21T18:12:04;3.78;;;1.30;;
75614;SDS011;64199;48.578;-4.520;2024-02-21T18:14:30;3.83;;;1.20;;
75614;SDS011;64199;48.578;-4.520;2024-02-21T18:16:55;3.05;;;1.10;;
75614;SDS011;64199;48.578;-4.520;2024-02-21T18:19:21;3.10;;;1.13;;
75614;SDS011;64199;48.578;-4.520;2024-02-21T18:21:47;2.83;;;1.15;;
75614;SDS011;64199;48.578;-4.520;2024-02-21T18:24:13;2.50;;;0.90;;
75614;SDS011;64199;48.578;-4.520;2024-02-21T18:26:39;1.88;;;1.00;;
75614;SDS011;64199;48.578;-4.520;2024-02-21T18:29:05;2.85;;;1.30;;
75614;SDS011;64199;48.578;-4.520;2024-02-21T18:33:59;2.25;;;0.95;;
75614;SDS011;64199;48.578;-4.520;2024-02-21T18:36:28;2.53;;;1.10;;
75614;SDS011;64199;48.578;-4.520;2024-02-21T18:38:54;2.95;;;1.30;;
75614;SDS011;64199;48.578;-4.520;2024-02-21T18:41:20;2.83;;;1.13;;
75614;SDS011;64199;48.578;-4.520;2024-02-21T18:43:47;3.30;;;1.20;;
75614;SDS011;64199;48.578;-4.520;2024-02-21T18:46:13;2.55;;;1.00;;
75614;SDS011;64199;48.578;-4.520;2024-02-21T18:48:40;3.30;;;1.30;;
75614;SDS011;64199;48.578;-4.520;2024-02-21T18:51:15;2.88;;;1.40;;
75614;SDS011;64199;48.578;-4.520;2024-02-21T18:53:41;6.90;;;1.25;;
75614;SDS011;64199;48.578;-4.520;2024-02-21T18:56:07;3.00;;;0.90;;
75614;SDS011;64199;48.578;-4.520;2024-02-21T18:58:34;5.03;;;1.63;;
75614;SDS011;64199;48.578;-4.520;2024-02-21T19:00:59;3.33;;;1.25;;
75614;SDS011;64199;48.578;-4.520;2024-02-21T19:03:25;4.88;;;1.40;;
75614;SDS011;64199;48.578;-4.520;2024-02-21T19:05:51;3.88;;;1.65;;
75614;SDS011;64199;48.578;-4.520;2024-02-21T19:08:17;3.53;;;1.40;;
75614;SDS011;64199;48.578;-4.520;2024-02-21T19:10:43;3.08;;;1.15;;
75614;SDS011;64199;48.578;-4.520;2024-02-21T19:13:09;7.97;;;1.55;;
75614;SDS011;64199;48.578;-4.520;2024-02-21T19:15:36;1.88;;;1.00;;
75614;SDS011;64199;48.578;-4.520;2024-02-21T19:18:06;2.90;;;1.05;;
75614;SDS011;64199;48.578;-4.520;2024-02-21T19:20:32;2.55;;;1.25;;
75614;SDS011;64199;48.578;-4.520;2024-02-21T19:22:58;2.35;;;1.13;;
75614;SDS011;64199;48.578;-4.520;2024-02-21T19:25:23;2.80;;;1.08;;
75614;SDS011;64199;48.578;-4.520;2024-02-21T19:27:50;3.80;;;1.33;;
75614;SDS011;64199;48.578;-4.520;2024-02-21T19:30:16;4.70;;;1.65;;
75614;SDS011;64199;48.578;-4.520;2024-02-21T19:32:42;4.63;;;1.40;;
75614;SDS011;64199;48.578;-4.520;2024-02-21T19:35:08;3.28;;;1.20;;
75614;SDS011;64199;48.578;-4.520;2024-02-21T19:37:40;3.22;;;1.30;;
75614;SDS011;64199;48.578;-4.520;2024-02-21T19:40:06;3.00;;;1.10;;
75614;SDS011;64199;48.578;-4.520;2024-02-21T19:42:33;3.63;;;1.20;;
75614;SDS011;64199;48.578;-4.520;2024-02-21T19:44:59;2.03;;;0.90;;
75614;SDS011;64199;48.578;-4.520;2024-02-21T19:47:25;2.10;;;1.02;;
75614;SDS011;64199;48.578;-4.520;2024-02-21T19:49:51;3.72;;;1.27;;
75614;SDS011;64199;48.578;-4.520;2024-02-21T19:52:17;3.08;;;1.17;;
75614;SDS011;64199;48.578;-4.520;2024-02-21T19:54:43;3.80;;;0.90;;
75614;SDS011;64199;48.578;-4.520;2024-02-21T19:57:09;2.83;;;1.20;;
75614;SDS011;64199;48.578;-4.520;2024-02-21T19:59:35;3.33;;;1.20;;
75614;SDS011;64199;48.578;-4.520;2024-02-21T20:02:02;3.47;;;1.33;;
75614;SDS011;64199;48.578;-4.520;2024-02-21T20:04:28;5.20;;;1.15;;
75614;SDS011;64199;48.578;-4.520;2024-02-21T20:06:54;5.15;;;1.02;;
75614;SDS011;64199;48.578;-4.520;2024-02-21T20:09:20;2.85;;;1.20;;
75614;SDS011;64199;48.578;-4.520;2024-02-21T20:11:46;2.53;;;1.13;;
75614;SDS011;64199;48.578;-4.520;2024-02-21T20:14:11;2.13;;;0.95;;
75614;SDS011;64199;48.578;-4.520;2024-02-21T20:16:38;3.75;;;1.60;;
75614;SDS011;64199;48.578;-4.520;2024-02-21T20:19:04;4.68;;;1.30;;
75614;SDS011;64199;48.578;-4.520;2024-02-21T20:21:30;2.42;;;1.17;;
75614;SDS011;64199;48.578;-4.520;2024-02-21T20:23:56;2.97;;;1.20;;
75614;SDS011;64199;48.578;-4.520;2024-02-21T20:26:23;3.53;;;1.02;;
75614;SDS011;64199;48.578;-4.520;2024-02-21T20:28:49;2.07;;;0.97;;
75614;SDS011;64199;48.578;-4.520;2024-02-21T20:31:15;2.20;;;1.13;;
75614;SDS011;64199;48.578;-4.520;2024-02-21T20:33:45;3.85;;;1.20;;
75614;SDS011;64199;48.578;-4.520;2024-02-21T20:36:11;2.45;;;1.13;;
75614;SDS011;64199;48.578;-4.520;2024-02-21T20:38:37;2.70;;;1.20;;
75614;SDS011;64199;48.578;-4.520;2024-02-21T20:41:03;1.00;;;0.70;;
75614;SDS011;64199;48.578;-4.520;2024-02-21T20:43:29;2.50;;;0.90;;
75614;SDS011;64199;48.578;-4.520;2024-02-21T20:45:55;2.58;;;1.15;;
75614;SDS011;64199;48.578;-4.520;2024-02-21T20:48:21;1.52;;;1.00;;
75614;SDS011;64199;48.578;-4.520;2024-02-21T20:50:47;1.95;;;0.85;;
75614;SDS011;64199;48.578;-4.520;2024-02-21T20:53:13;5.00;;;1.20;;
75614;SDS011;64199;48.578;-4.520;2024-02-21T20:55:38;1.50;;;0.90;;
75614;SDS011;64199;48.578;-4.520;2024-02-21T20:58:06;1.30;;;0.80;;
75614;SDS011;64199;48.578;-4.520;2024-02-21T21:00:32;1.58;;;0.88;;
75614;SDS011;64199;48.578;-4.520;2024-02-21T21:02:58;1.88;;;0.90;;
75614;SDS011;64199;48.578;-4.520;2024-02-21T21:05:24;4.55;;;1.10;;
75614;SDS011;64199;48.578;-4.520;2024-02-21T21:07:50;2.47;;;1.33;;
75614;SDS011;64199;48.578;-4.520;2024-02-21T21:10:16;2.53;;;1.13;;
75614;SDS011;64199;48.578;-4.520;2024-02-21T21:12:42;3.15;;;0.93;;
75614;SDS011;64199;48.578;-4.520;2024-02-21T21:15:08;3.53;;;0.80;;
75614;SDS011;64199;48.578;-4.520;2024-02-21T21:17:34;4.15;;;0.98;;
75614;SDS011;64199;48.578;-4.520;2024-02-21T21:20:00;6.28;;;1.50;;
75614;SDS011;64199;48.578;-4.520;2024-02-21T21:22:36;3.78;;;1.45;;
75614;SDS011;64199;48.578;-4.520;2024-02-21T21:25:05;1.58;;;0.95;;
75614;SDS011;64199;48.578;-4.520;2024-02-21T21:27:31;1.48;;;0.85;;
75614;SDS011;64199;48.578;-4.520;2024-02-21T21:29:57;2.85;;;0.95;;
75614;SDS011;64199;48.578;-4.520;2024-02-21T21:32:23;2.15;;;1.00;;
75614;SDS011;64199;48.578;-4.520;2024-02-21T21:34:49;1.08;;;0.88;;
75614;SDS011;64199;48.578;-4.520;2024-02-21T21:37:16;2.53;;;1.20;;
75614;SDS011;64199;48.578;-4.520;2024-02-21T21:39:42;1.70;;;0.93;;
75614;SDS011;64199;48.578;-4.520;2024-02-21T21:42:12;3.38;;;1.05;;
75614;SDS011;64199;48.578;-4.520;2024-02-21T21:44:39;4.53;;;0.80;;
75614;SDS011;64199;48.578;-4.520;2024-02-21T21:47:04;4.15;;;0.90;;
75614;SDS011;64199;48.578;-4.520;2024-02-21T21:49:30;1.45;;;0.90;;
75614;SDS011;64199;48.578;-4.520;2024-02-21T21:51:57;1.17;;;0.80;;
75614;SDS011;64199;48.578;-4.520;2024-02-21T21:54:23;1.60;;;0.75;;
75614;SDS011;64199;48.578;-4.520;2024-02-21T21:56:49;1.50;;;0.70;;
75614;SDS011;64199;48.578;-4.520;2024-02-21T21:59:15;1.83;;;1.13;;
75614;SDS011;64199;48.578;-4.520;2024-02-21T22:01:41;1.10;;;0.68;;
75614;SDS011;64199;48.578;-4.520;2024-02-21T22:04:07;2.42;;;0.60;;
75614;SDS011;64199;48.578;-4.520;2024-02-21T22:06:32;1.27;;;0.88;;
75614;SDS011;64199;48.578;-4.520;2024-02-21T22:08:58;0.77;;;0.65;;
75614;SDS011;64199;48.578;-4.520;2024-02-21T22:11:24;1.58;;;0.82;;
75614;SDS011;64199;48.578;-4.520;2024-02-21T22:13:50;1.40;;;0.80;;
75614;SDS011;64199;48.578;-4.520;2024-02-21T22:16:15;1.02;;;0.65;;
75614;SDS011;64199;48.578;-4.520;2024-02-21T22:18:41;2.10;;;1.02;;
75614;SDS011;64199;48.578;-4.520;2024-02-21T22:21:07;3.50;;;1.27;;
75614;SDS011;64199;48.578;-4.520;2024-02-21T22:23:33;3.33;;;0.93;;
75614;SDS011;64199;48.578;-4.520;2024-02-21T22:25:59;1.08;;;0.77;;
75614;SDS011;64199;48.578;-4.520;2024-02-21T22:28:24;1.73;;;0.60;;
75614;SDS011;64199;48.578;-4.520;2024-02-21T22:30:50;1.38;;;0.90;;
75614;SDS011;64199;48.578;-4.520;2024-02-21T22:33:16;2.03;;;1.02;;
75614;SDS011;64199;48.578;-4.520;2024-02-21T22:35:42;1.13;;;0.68;;
75614;SDS011;64199;48.578;-4.520;2024-02-21T22:38:08;1.10;;;0.70;;
75614;SDS011;64199;48.578;-4.520;2024-02-21T22:40:34;1.10;;;0.80;;
75614;SDS011;64199;48.578;-4.520;2024-02-21T22:43:00;3.40;;;0.80;;
75614;SDS011;64199;48.578;-4.520;2024-02-21T22:45:26;1.95;;;0.80;;
75614;SDS011;64199;48.578;-4.520;2024-02-21T22:47:52;1.40;;;1.00;;
75614;SDS011;64199;48.578;-4.520;2024-02-21T22:50:18;2.22;;;0.80;;
75614;SDS011;64199;48.578;-4.520;2024-02-21T22:52:44;2.63;;;0.65;;
75614;SDS011;64199;48.578;-4.520;2024-02-21T22:55:10;1.00;;;0.65;;
75614;SDS011;64199;48.578;-4.520;2024-02-21T22:57:36;2.95;;;0.80;;
75614;SDS011;64199;48.578;-4.520;2024-02-21T23:00:06;1.70;;;1.00;;
75614;SDS011;64199;48.578;-4.520;2024-02-21T23:02:36;0.65;;;0.60;;
75614;SDS011;64199;48.578;-4.520;2024-02-21T23:05:02;3.95;;;1.10;;
75614;SDS011;64199;48.578;-4.520;2024-02-21T23:07:32;2.63;;;1.02;;
75614;SDS011;64199;48.578;-4.520;2024-02-21T23:09:58;1.98;;;1.10;;
75614;SDS011;64199;48.578;-4.520;2024-02-21T23:12:25;1.13;;;0.75;;
75614;SDS011;64199;48.578;-4.520;2024-02-21T23:14:51;1.35;;;0.63;;
75614;SDS011;64199;48.578;-4.520;2024-02-21T23:17:20;2.70;;;0.80;;
75614;SDS011;64199;48.578;-4.520;2024-02-21T23:19:46;3.63;;;1.00;;
75614;SDS011;64199;48.578;-4.520;2024-02-21T23:22:11;1.20;;;0.65;;
75614;SDS011;64199;48.578;-4.520;2024-02-21T23:24:37;1.95;;;1.08;;
75614;SDS011;64199;48.578;-4.520;2024-02-21T23:27:03;5.45;;;1.00;;
75614;SDS011;64199;48.578;-4.520;2024-02-21T23:29:29;1.27;;;0.93;;
75614;SDS011;64199;48.578;-4.520;2024-02-21T23:31:55;1.17;;;0.80;;
75614;SDS011;64199;48.578;-4.520;2024-02-21T23:34:21;0.98;;;0.80;;
75614;SDS011;64199;48.578;-4.520;2024-02-21T23:36:47;1.15;;;0.90;;
75614;SDS011;64199;48.578;-4.520;2024-02-21T23:39:13;6.93;;;0.90;;
75614;SDS011;64199;48.578;-4.520;2024-02-21T23:41:38;2.45;;;0.77;;
75614;SDS011;64199;48.578;-4.520;2024-02-21T23:44:04;1.77;;;0.95;;
75614;SDS011;64199;48.578;-4.520;2024-02-21T23:46:30;3.20;;;1.20;;
75614;SDS011;64199;48.578;-4.520;2024-02-21T23:48:57;1.83;;;0.77;;
75614;SDS011;64199;48.578;-4.520;2024-02-21T23:51:26;1.92;;;0.88;;
75614;SDS011;64199;48.578;-4.520;2024-02-21T23:53:52;0.95;;;0.65;;
75614;SDS011;64199;48.578;-4.520;2024-02-21T23:56:18;4.63;;;1.30;;
75614;SDS011;64199;48.578;-4.520;2024-02-21T23:58:44;1.08;;;0.75;;
